Time;durP1;ratioP1;P1;durP2;ratioP2;P2;SDS_P1;SDS_P2;PMS_P1;PMS_P2;Temp;Humidity;BMP_temperature;BMP_pressure;BME280_temperature;BME280_humidity;BME280_pressure;Samples;Min_cycle;Max_cycle;Signal;HPM_P1;HPM_P2
2021/11/01 00:01:04;;;;;;;1.48;0.88;;;;;;;-145.69;79.16;70250.44;5073144;28;20775;-78
2021/11/01 00:03:31;;;;;;;0.68;0.65;;;;;;;-145.69;78.33;70232.53;5073167;28;20209;-79
2021/11/01 00:05:58;;;;;;;1.95;0.70;;;;;;;-145.69;78.97;70240.47;5073253;28;20203;-78
2021/11/01 00:08:25;;;;;;;7.75;1.48;;;;;;;-145.69;79.39;70246.44;5073414;28;20209;-78
2021/11/01 00:10:53;;;;;;;1.80;0.90;;;;;;;-145.69;82.11;70264.34;5073237;28;20199;-78
2021/11/01 00:13:20;;;;;;;0.98;0.60;;;;;;;-145.69;76.48;70200.69;5072995;28;20206;-78
2021/11/01 00:15:46;;;;;;;1.00;0.60;;;;;;;-145.69;76.97;70200.69;5073252;28;20561;-78
2021/11/01 00:18:13;;;;;;;5.68;0.60;;;;;;;-145.69;77.25;70204.69;5072629;28;20229;-78
2021/11/01 00:20:39;;;;;;;0.50;0.50;;;;;;;-145.69;76.90;70192.75;5072856;28;20561;-79
2021/11/01 00:23:06;;;;;;;1.15;0.70;;;;;;;-145.69;77.50;70192.75;5072798;28;20223;-78
2021/11/01 00:25:32;;;;;;;2.00;0.82;;;;;;;-145.69;76.90;70186.78;5073228;28;20203;-79
2021/11/01 00:28:00;;;;;;;1.70;1.02;;;;;;;-145.69;76.33;70180.81;5072891;28;20207;-78
2021/11/01 00:30:27;;;;;;;0.85;0.70;;;;;;;-145.69;76.73;70186.78;5072558;28;20442;-79
2021/11/01 00:32:53;;;;;;;1.48;0.73;;;;;;;-145.69;77.99;70204.69;5072849;28;20675;-78
2021/11/01 00:35:20;;;;;;;1.10;0.70;;;;;;;-145.69;79.35;70220.59;5072981;28;20542;-78
2021/11/01 00:37:47;;;;;;;5.38;0.90;;;;;;;-145.69;81.13;70246.44;5073061;28;20195;-79
2021/11/01 00:40:13;;;;;;;1.48;0.80;;;;;;;-145.69;83.22;70280.28;5073040;28;20199;-78
2021/11/01 00:42:40;;;;;;;1.95;0.90;;;;;;;-145.69;84.19;70290.22;5072915;28;20624;-79
2021/11/01 00:45:08;;;;;;;0.90;0.70;;;;;;;-145.69;85.02;70300.16;5072750;28;20676;-78
2021/11/01 00:47:35;;;;;;;1.23;0.70;;;;;;;-145.69;86.09;70320.06;5072722;28;20199;-79
2021/11/01 00:50:02;;;;;;;1.05;0.80;;;;;;;-145.69;85.43;70320.06;5072941;28;20722;-78
2021/11/01 00:52:30;;;;;;;0.65;0.60;;;;;;;-145.69;86.42;70320.06;5072736;28;20657;-79
2021/11/01 00:55:02;;;;;;;2.38;0.80;;;;;;;-145.69;86.36;70316.06;5072966;28;20531;-79
2021/11/01 00:57:29;;;;;;;3.30;0.60;;;;;;;-145.69;85.51;70318.06;5072684;28;20238;-79
2021/11/01 00:59:57;;;;;;;4.18;0.77;;;;;;;-145.69;86.26;70320.06;5072651;28;20194;-78
2021/11/01 01:02:27;;;;;;;0.65;0.60;;;;;;;-145.69;87.09;70320.06;5072417;28;20230;-78
2021/11/01 01:04:54;;;;;;;0.80;0.80;;;;;;;-145.69;85.56;70304.13;5072510;28;20653;-78
2021/11/01 01:07:20;;;;;;;1.35;0.70;;;;;;;-145.69;85.75;70292.19;5072557;28;20382;-78
2021/11/01 01:09:47;;;;;;;1.00;0.70;;;;;;;-145.69;86.83;70302.16;5072504;28;20210;-78
2021/11/01 01:12:14;;;;;;;1.00;0.68;;;;;;;-145.69;87.04;70308.13;5072433;28;20249;-79
2021/11/01 01:14:45;;;;;;;1.48;0.70;;;;;;;-145.69;87.63;70308.13;5097373;28;20901;-78
2021/11/01 01:17:11;;;;;;;1.15;0.80;;;;;;;-145.69;87.14;70308.13;5113229;28;20289;-78
2021/11/01 01:19:51;;;;;;;3.65;0.90;;;;;;;-145.69;86.29;70280.28;5113271;28;20616;-78
2021/11/01 01:22:28;;;;;;;1.80;0.73;;;;;;;-145.69;84.63;70252.41;5113143;28;20225;-79
2021/11/01 01:24:55;;;;;;;2.92;0.70;;;;;;;-145.69;85.61;70248.44;5113093;28;20197;-78
2021/11/01 01:27:22;;;;;;;3.15;1.00;;;;;;;-145.69;88.03;70280.28;5112757;28;20205;-78
2021/11/01 01:29:50;;;;;;;2.75;0.95;;;;;;;-145.69;90.81;70300.16;5113623;28;20229;-78
2021/11/01 01:32:17;;;;;;;1.30;0.95;;;;;;;-145.69;92.92;70320.06;5116973;28;20193;-78
2021/11/01 01:34:45;;;;;;;2.17;1.10;;;;;;;-145.69;95.58;70322.03;5116956;28;20203;-78
2021/11/01 01:37:11;;;;;;;1.52;0.80;;;;;;;-145.69;96.53;70328.00;5116862;28;20258;-78
2021/11/01 01:39:38;;;;;;;2.67;1.20;;;;;;;-145.69;98.47;70343.94;5116704;28;20197;-79
2021/11/01 01:42:05;;;;;;;1.00;0.90;;;;;;;-145.69;100.00;70351.88;5116794;28;20217;-79
2021/11/01 01:44:32;;;;;;;2.28;1.13;;;;;;;-145.69;100.00;70381.72;5116800;28;20202;-79
2021/11/01 01:46:59;;;;;;;1.10;1.00;;;;;;;-145.69;100.00;70407.59;5116724;28;20271;-78
2021/11/01 01:49:25;;;;;;;2.38;0.98;;;;;;;-145.69;100.00;70421.50;5116516;27;20202;-78
2021/11/01 01:51:53;;;;;;;2.30;1.17;;;;;;;-145.69;100.00;70441.41;5116442;28;20644;-78
2021/11/01 01:54:19;;;;;;;1.63;1.20;;;;;;;-145.69;100.00;70459.31;5116552;28;20202;-79
2021/11/01 01:56:47;;;;;;;2.67;1.20;;;;;;;-145.69;100.00;70457.31;5116377;28;20201;-79
2021/11/01 01:59:18;;;;;;;2.78;1.27;;;;;;;-145.69;100.00;70479.19;5116614;28;20197;-79
2021/11/01 02:01:45;;;;;;;1.38;1.00;;;;;;;-145.69;100.00;70493.13;5116154;28;20634;-79
2021/11/01 02:04:13;;;;;;;2.67;1.25;;;;;;;-145.69;100.00;70501.09;5116449;28;20205;-79
2021/11/01 02:06:48;;;;;;;2.45;1.35;;;;;;;-145.69;100.00;70503.06;5116292;28;20247;-79
2021/11/01 02:09:20;;;;;;;1.65;1.05;;;;;;;-145.69;100.00;70503.06;5116183;28;20205;-79
2021/11/01 02:11:51;;;;;;;3.78;0.90;;;;;;;-145.69;100.00;70503.06;5116435;28;20205;-79
2021/11/01 02:14:24;;;;;;;3.10;1.20;;;;;;;-145.69;100.00;70501.09;5116272;28;20204;-79
2021/11/01 02:16:52;;;;;;;2.88;1.20;;;;;;;-145.69;100.00;70499.09;5116095;28;20208;-79
2021/11/01 02:19:28;;;;;;;2.78;1.10;;;;;;;-145.69;100.00;70501.09;5115929;28;20548;-79
2021/11/01 02:22:00;;;;;;;3.08;1.50;;;;;;;-145.69;100.00;70501.09;5116222;28;20305;-79
2021/11/01 02:24:36;;;;;;;2.08;1.40;;;;;;;-145.69;100.00;70507.06;5116253;28;20209;-79
2021/11/01 02:27:09;;;;;;;2.20;1.65;;;;;;;-145.69;100.00;70505.06;5115893;28;20215;-79
2021/11/01 02:29:36;;;;;;;1.33;1.23;;;;;;;-145.69;100.00;70501.09;5115742;28;20211;-78
2021/11/01 02:32:03;;;;;;;1.40;1.30;;;;;;;-145.69;100.00;70491.13;5115597;28;20247;-79
2021/11/01 02:34:29;;;;;;;2.78;1.58;;;;;;;-145.69;100.00;70489.16;5115937;28;20221;-79
2021/11/01 02:36:56;;;;;;;2.05;1.40;;;;;;;-145.69;100.00;70483.19;5115736;28;20246;-79
2021/11/01 02:39:24;;;;;;;3.40;1.50;;;;;;;-145.69;100.00;70479.19;5115841;28;20220;-79
2021/11/01 02:41:51;;;;;;;4.30;1.40;;;;;;;-145.69;100.00;70489.16;5115062;28;20321;-79
2021/11/01 02:44:21;;;;;;;1.77;1.40;;;;;;;-145.69;100.00;70491.13;5115747;28;20283;-79
2021/11/01 02:46:48;;;;;;;3.80;1.30;;;;;;;-145.69;100.00;70495.13;5115862;28;20201;-79
2021/11/01 02:49:14;;;;;;;2.85;1.60;;;;;;;-145.69;100.00;70505.06;5115896;28;20200;-79
2021/11/01 02:51:41;;;;;;;3.23;1.63;;;;;;;-145.69;100.00;70511.03;5115811;28;20209;-79
2021/11/01 02:54:09;;;;;;;4.90;1.60;;;;;;;-145.69;100.00;70497.09;5115549;27;20201;-79
2021/11/01 02:56:36;;;;;;;3.10;1.43;;;;;;;-145.69;100.00;70499.09;5115525;28;20214;-79
2021/11/01 02:59:02;;;;;;;4.07;1.40;;;;;;;-145.69;100.00;70501.09;5115230;28;20212;-78
2021/11/01 03:01:31;;;;;;;5.53;1.30;;;;;;;-145.69;100.00;70499.09;5115661;28;20197;-79
2021/11/01 03:03:57;;;;;;;2.80;1.33;;;;;;;-145.69;100.00;70503.06;5115098;28;20316;-79
2021/11/01 03:06:29;;;;;;;2.90;1.20;;;;;;;-145.69;100.00;70495.13;5115258;28;20201;-79
2021/11/01 03:08:57;;;;;;;2.53;1.50;;;;;;;-145.69;100.00;70509.03;5115258;28;20208;-79
2021/11/01 03:11:25;;;;;;;5.13;2.67;;;;;;;-145.69;100.00;70522.97;5111551;28;20197;-79
2021/11/01 03:13:52;;;;;;;3.30;2.10;;;;;;;-145.69;100.00;70566.75;5115277;28;20205;-79
2021/11/01 03:16:19;;;;;;;3.07;2.13;;;;;;;-145.69;100.00;70594.59;5115519;28;20197;-78
2021/11/01 03:19:00;;;;;;;2.67;2.20;;;;;;;-145.69;100.00;70622.44;5115077;28;20300;-79
2021/11/01 03:21:31;;;;;;;5.10;1.70;;;;;;;-145.69;100.00;70644.31;5113628;28;20650;-79
2021/11/01 03:23:58;;;;;;;2.43;1.30;;;;;;;-145.69;100.00;70658.25;5114855;28;20312;-79
2021/11/01 03:26:27;;;;;;;2.83;0.87;;;;;;;-145.69;100.00;70684.13;5114975;28;20600;-80
2021/11/01 03:28:58;;;;;;;2.10;1.17;;;;;;;-145.69;100.00;70704.00;5114717;28;20242;-80
2021/11/01 03:31:26;;;;;;;1.50;1.00;;;;;;;-145.69;100.00;70733.84;5114760;28;20233;-79
2021/11/01 03:33:55;;;;;;;4.53;0.90;;;;;;;-145.69;100.00;70717.94;5115029;28;20220;-79
2021/11/01 03:36:23;;;;;;;0.70;0.70;;;;;;;-145.69;100.00;70725.91;5114742;27;20197;-78
2021/11/01 03:38:50;;;;;;;0.80;0.80;;;;;;;-145.69;100.00;70733.84;5114683;28;20197;-77
2021/11/01 03:41:17;;;;;;;0.97;0.80;;;;;;;-145.69;100.00;70735.84;5114684;28;20201;-79
2021/11/01 03:43:52;;;;;;;1.40;0.73;;;;;;;-145.69;100.00;70741.81;5114505;28;20231;-79
2021/11/01 03:46:24;;;;;;;1.37;0.60;;;;;;;-145.69;100.00;70757.72;5114575;28;20212;-78
2021/11/01 03:48:51;;;;;;;0.60;0.60;;;;;;;-145.69;100.00;70767.69;5114682;28;20280;-79
2021/11/01 03:51:38;;;;;;;1.37;0.70;;;;;;;-145.69;100.00;70765.69;5114434;28;20202;-78
2021/11/01 03:54:04;;;;;;;3.00;0.70;;;;;;;-145.69;100.00;70773.66;5113252;28;20292;-78
2021/11/01 03:56:32;;;;;;;1.83;0.40;;;;;;;-145.69;100.00;70783.59;5114474;28;20337;-77
2021/11/01 03:58:59;;;;;;;1.13;0.40;;;;;;;-145.69;100.00;70791.56;5114420;28;20201;-78
2021/11/01 04:01:26;;;;;;;0.93;0.50;;;;;;;-145.69;100.00;70815.44;5114116;28;20197;-78
2021/11/01 04:03:53;;;;;;;0.63;0.20;;;;;;;-145.69;100.00;70817.41;5114430;28;20225;-78
2021/11/01 04:06:22;;;;;;;0.73;0.30;;;;;;;-145.69;100.00;70819.41;5114267;28;20204;-78
2021/11/01 04:08:49;;;;;;;2.43;0.40;;;;;;;-145.69;100.00;70833.34;5114252;28;20201;-77
2021/11/01 04:11:16;;;;;;;2.67;0.50;;;;;;;-145.69;100.00;70833.34;5114071;28;20198;-77
2021/11/01 04:13:43;;;;;;;0.60;0.40;;;;;;;-145.69;100.00;70835.31;5113894;28;20678;-77
2021/11/01 04:16:12;;;;;;;0.40;0.40;;;;;;;-145.69;100.00;70847.25;5113763;28;20201;-77
2021/11/01 04:18:51;;;;;;;0.53;0.47;;;;;;;-145.69;100.00;70853.22;5114015;28;20194;-77
2021/11/01 04:21:17;;;;;;;0.25;0.25;;;;;;;-145.69;100.00;70863.19;5113184;28;20984;-76
2021/11/01 04:23:45;;;;;;;1.97;0.30;;;;;;;-145.69;100.00;70875.13;5113550;28;20225;-77
2021/11/01 04:26:14;;;;;;;1.60;0.30;;;;;;;-145.69;100.00;70881.09;5113609;28;20237;-77
2021/11/01 04:28:41;;;;;;;0.40;0.33;;;;;;;-145.69;100.00;70887.06;5113589;28;20209;-76
2021/11/01 04:31:09;;;;;;;0.57;0.30;;;;;;;-145.69;100.00;70887.06;5113732;28;20236;-77
2021/11/01 04:33:39;;;;;;;0.53;0.33;;;;;;;-145.69;100.00;70899.00;5113489;28;20651;-77
2021/11/01 04:36:08;;;;;;;0.50;0.30;;;;;;;-145.69;100.00;70904.97;5113782;28;20288;-77
2021/11/01 04:38:46;;;;;;;0.50;0.37;;;;;;;-145.69;100.00;70912.91;5113688;28;20201;-77
2021/11/01 04:41:20;;;;;;;0.30;0.30;;;;;;;-145.69;100.00;70904.97;5113619;28;20244;-76
2021/11/01 04:54:43;;;;;;;0.97;0.40;;;;;;;-145.69;100.00;70956.69;5113527;28;20243;-77
2021/11/01 04:57:11;;;;;;;0.40;0.33;;;;;;;-145.69;100.00;70966.63;5113508;28;20198;-78
2021/11/01 04:59:39;;;;;;;1.40;0.40;;;;;;;-145.69;100.00;70972.59;5113386;28;20243;-78
2021/11/01 05:02:06;;;;;;;0.87;0.50;;;;;;;-145.69;100.00;70978.56;5113419;28;20209;-78
2021/11/01 05:04:35;;;;;;;0.87;0.40;;;;;;;-145.69;100.00;70980.56;5115721;28;20271;-77
2021/11/01 05:07:03;;;;;;;0.80;0.40;;;;;;;-145.69;100.00;70992.50;5117786;28;20193;-76
2021/11/01 05:09:33;;;;;;;0.87;0.50;;;;;;;-145.69;100.00;70992.50;5117499;27;20551;-77
2021/11/01 05:12:08;;;;;;;2.43;0.60;;;;;;;-145.69;100.00;71004.44;5113889;28;20212;-77
2021/11/01 05:14:39;;;;;;;0.97;0.40;;;;;;;-145.69;100.00;71010.41;5117214;28;20667;-76
2021/11/01 05:19:52;;;;;;;0.70;0.43;;;;;;;-145.69;100.00;71014.38;5116791;28;20211;-77
2021/11/01 05:22:26;;;;;;;1.40;0.50;;;;;;;-145.69;100.00;71024.34;5117110;28;20233;-77
2021/11/01 05:24:56;;;;;;;4.60;0.60;;;;;;;-145.69;100.00;71036.28;5117204;28;20414;-77
2021/11/01 05:27:38;;;;;;;0.90;0.57;;;;;;;-145.69;100.00;71044.22;5117320;28;20225;-76
2021/11/01 05:30:11;;;;;;;0.40;0.40;;;;;;;-145.69;100.00;71054.19;5117222;28;20611;-76
2021/11/01 05:32:39;;;;;;;0.97;0.43;;;;;;;-145.69;100.00;71068.13;5117224;28;20198;-76
2021/11/01 05:35:07;;;;;;;0.70;0.53;;;;;;;-145.69;100.00;71076.06;5116984;28;20197;-76
2021/11/01 05:37:34;;;;;;;0.70;0.40;;;;;;;-145.69;100.00;71080.06;5116792;28;20293;-76
2021/11/01 05:40:06;;;;;;;1.70;0.60;;;;;;;-145.69;100.00;71092.00;5117019;28;20564;-76
2021/11/01 05:42:33;;;;;;;2.17;0.50;;;;;;;-145.69;100.00;71092.00;5116877;28;20202;-76
2021/11/01 05:45:02;;;;;;;0.60;0.50;;;;;;;-145.69;100.00;71103.94;5116790;28;20193;-76
2021/11/01 05:47:30;;;;;;;2.30;0.50;;;;;;;-145.69;100.00;71119.84;5116749;28;20197;-76
2021/11/01 05:49:57;;;;;;;1.93;0.50;;;;;;;-145.69;100.00;71119.84;5116340;28;20205;-76
2021/11/01 05:52:27;;;;;;;0.80;0.50;;;;;;;-145.69;100.00;71127.81;5116326;28;20728;-76
2021/11/01 05:54:57;;;;;;;0.97;0.60;;;;;;;-145.69;100.00;71135.75;5116628;28;20297;-76
2021/11/01 05:57:30;;;;;;;1.60;0.73;;;;;;;-145.69;100.00;71139.75;5116705;28;20247;-76
2021/11/01 06:02:58;;;;;;;2.80;0.43;;;;;;;-145.69;100.00;71163.63;5084563;28;20200;-76
2021/11/01 06:05:57;;;;;;;2.00;0.70;;;;;;;-145.69;100.00;71165.59;5116456;28;20204;-76
2021/11/01 06:08:38;;;;;;;0.60;0.50;;;;;;;-145.69;100.00;71175.56;5116191;28;20716;-75
2021/11/01 06:13:48;;;;;;;1.60;0.50;;;;;;;-145.69;100.00;71175.56;5116299;28;20551;-75
2021/11/01 06:16:15;;;;;;;2.97;0.60;;;;;;;-145.69;100.00;71183.50;5115410;28;20193;-76
2021/11/01 06:18:44;;;;;;;1.40;0.40;;;;;;;-145.69;100.00;71191.47;5116211;28;20656;-76
2021/11/01 06:21:15;;;;;;;5.50;0.43;;;;;;;-145.69;100.00;71191.47;5116137;28;20204;-76
2021/11/01 06:23:43;;;;;;;4.73;0.70;;;;;;;-145.69;100.00;71195.47;5116159;28;20225;-76
2021/11/01 06:26:10;;;;;;;0.63;0.60;;;;;;;-145.69;100.00;71197.44;5116103;28;20209;-75
2021/11/01 06:28:41;;;;;;;1.03;0.70;;;;;;;-145.69;100.00;71203.41;5116055;28;20560;-76
2021/11/01 06:31:11;;;;;;;1.70;0.60;;;;;;;-145.69;100.00;71203.41;5115765;28;20229;-75
2021/11/01 06:34:16;;;;;;;0.97;0.50;;;;;;;-145.69;100.00;71215.34;5115702;28;20208;-76
2021/11/01 06:45:25;;;;;;;2.67;0.60;;;;;;;-145.69;100.00;71231.28;5072692;28;20227;-76
2021/11/01 06:50:53;;;;;;;2.20;0.60;;;;;;;-145.69;100.00;71231.28;5115593;28;20330;-75
2021/11/01 07:01:59;;;;;;;4.00;0.60;;;;;;;-145.69;100.00;71239.22;5115131;28;20708;-76
2021/11/01 07:15:20;;;;;;;0.70;0.70;;;;;;;-145.69;100.00;71275.03;5114902;28;20896;-76
2021/11/01 07:17:51;;;;;;;1.53;1.10;;;;;;;-145.69;100.00;71269.06;5115347;28;20202;-76
2021/11/01 07:20:33;;;;;;;1.73;1.10;;;;;;;-145.69;100.00;71271.06;5114983;28;20292;-76
2021/11/01 08:23:47;;;;;;;2.83;1.90;;;;;;;-145.69;100.00;71269.06;5113795;28;20301;-76
2021/11/01 08:26:37;;;;;;;3.20;2.10;;;;;;;-145.69;100.00;71257.13;5113730;28;20201;-76
2021/11/01 08:29:14;;;;;;;3.40;1.40;;;;;;;-145.69;100.00;71255.16;5113719;28;20197;-78
2021/11/01 08:40:16;;;;;;;4.37;2.07;;;;;;;-145.69;100.00;71213.38;5113406;28;20208;-76
2021/11/01 08:43:04;;;;;;;4.83;2.00;;;;;;;-145.69;100.00;71195.47;5113569;28;20295;-77
2021/11/01 08:46:03;;;;;;;7.00;3.23;;;;;;;-145.69;100.00;71187.50;5113820;28;20205;-76
2021/11/01 08:48:40;;;;;;;2.70;1.40;;;;;;;-145.69;100.00;71167.59;5113540;28;20208;-76
2021/11/01 09:05:05;;;;;;;74.23;21.67;;;;;;;-145.69;100.00;71107.91;5113588;28;20320;-77
2021/11/01 09:07:54;;;;;;;3.50;1.50;;;;;;;-145.69;100.00;71111.88;5113545;28;20660;-77
2021/11/01 09:11:00;;;;;;;2.40;0.60;;;;;;;-145.69;100.00;71115.88;5109504;28;20197;-78
2021/11/01 09:13:52;;;;;;;4.40;0.77;;;;;;;-145.69;100.00;71107.91;5113207;28;20228;-77
2021/11/01 09:19:37;;;;;;;3.67;1.03;;;;;;;-145.69;100.00;71090.00;5113390;28;20613;-76
2021/11/01 09:22:29;;;;;;;2.30;0.93;;;;;;;-145.69;100.00;71066.13;5113044;28;20208;-76
2021/11/01 09:25:03;;;;;;;2.20;0.50;;;;;;;-145.69;100.00;71064.13;5113293;28;20248;-77
2021/11/01 09:27:31;;;;;;;3.03;0.60;;;;;;;-145.69;100.00;71044.22;5112885;28;20224;-76
2021/11/01 09:30:23;;;;;;;0.50;0.50;;;;;;;-145.69;100.00;71056.16;5113176;28;20257;-76
2021/11/01 09:35:53;;;;;;;4.53;0.70;;;;;;;-145.69;100.00;71030.31;5113379;28;20266;-76
2021/11/01 09:41:06;;;;;;;1.77;0.50;;;;;;;-145.69;100.00;71026.31;5113192;28;20250;-76
2021/11/01 09:43:33;;;;;;;1.70;0.50;;;;;;;-145.69;100.00;71030.31;5113272;28;20231;-76
2021/11/01 09:46:02;;;;;;;0.50;0.50;;;;;;;-145.69;100.00;71038.25;5113272;28;20583;-76
2021/11/01 09:48:29;;;;;;;2.80;0.40;;;;;;;-145.69;100.00;71038.25;5112912;28;20197;-77
2021/11/01 09:50:56;;;;;;;0.70;0.57;;;;;;;-145.69;100.00;71038.25;5085698;28;20206;-77
2021/11/01 09:53:28;;;;;;;0.60;0.60;;;;;;;-145.69;100.00;71034.28;5078125;28;20232;-77
2021/11/01 09:56:06;;;;;;;0.80;0.40;;;;;;;-145.69;100.00;71040.25;5069740;28;20542;-75
2021/11/01 10:01:21;;;;;;;1.30;0.57;;;;;;;-145.69;100.00;71034.28;5075285;28;20201;-76
2021/11/01 10:03:50;;;;;;;1.27;0.67;;;;;;;-145.69;100.00;71026.31;5075519;28;20233;-77
2021/11/01 10:06:19;;;;;;;3.70;0.90;;;;;;;-145.69;100.00;71034.28;5076001;28;20256;-76
2021/11/01 10:08:49;;;;;;;1.07;0.70;;;;;;;-145.69;100.00;71036.28;5075830;28;20199;-77
2021/11/01 10:11:19;;;;;;;0.70;0.40;;;;;;;-145.69;100.00;71034.28;5075641;28;20665;-77
2021/11/01 10:13:49;;;;;;;0.90;0.60;;;;;;;-145.69;100.00;71062.13;5075557;28;20210;-77
2021/11/01 10:19:11;;;;;;;0.97;0.50;;;;;;;-145.69;100.00;71054.19;5075574;28;20198;-77
2021/11/01 10:21:49;;;;;;;0.50;0.50;;;;;;;-145.69;100.00;71060.16;5075581;28;20207;-76
2021/11/01 10:24:23;;;;;;;2.83;0.50;;;;;;;-145.69;100.00;71068.13;5075417;28;20226;-76
2021/11/01 10:26:51;;;;;;;0.90;0.60;;;;;;;-145.69;100.00;71064.13;5075228;28;20293;-76
2021/11/01 10:29:17;;;;;;;0.77;0.57;;;;;;;-145.69;100.00;71058.16;5075537;28;20256;-77
2021/11/01 10:31:46;;;;;;;2.73;0.40;;;;;;;-145.69;100.00;71048.22;5075202;28;20642;-76
2021/11/01 10:34:14;;;;;;;1.00;0.60;;;;;;;-145.69;100.00;71038.25;5075192;28;20241;-76
2021/11/01 10:36:43;;;;;;;1.00;0.60;;;;;;;-145.69;100.00;71036.28;5074032;28;20839;-77
2021/11/01 10:39:13;;;;;;;1.27;0.60;;;;;;;-145.69;100.00;71038.25;5074965;28;20199;-77
2021/11/01 10:41:49;;;;;;;0.63;0.50;;;;;;;-145.69;100.00;71032.28;5075014;28;20285;-76
2021/11/01 10:44:42;;;;;;;2.50;0.60;;;;;;;-145.69;100.00;71048.22;5075066;28;20229;-77
2021/11/01 11:12:14;;;;;;;1.43;0.60;;;;;;;-145.69;100.00;71008.41;5094625;28;20241;-76
2021/11/01 11:14:45;;;;;;;1.27;0.70;;;;;;;-145.69;100.00;71016.38;5094531;28;20193;-76
2021/11/01 11:17:21;;;;;;;2.30;1.00;;;;;;;-145.69;100.00;71028.31;5104757;28;20230;-75
2021/11/01 11:26:17;;;;;;;0.97;0.77;;;;;;;-145.69;100.00;71040.25;5110193;28;20201;-78
2021/11/01 11:38:39;;;;;;;2.60;0.60;;;;;;;-145.69;99.90;71062.13;5110098;28;20204;-78
2021/11/01 11:43:59;;;;;;;3.00;1.10;;;;;;;-145.69;100.00;71060.16;5110046;28;20686;-78
2021/11/01 11:53:14;;;;;;;14.90;5.63;;;;;;;-145.69;98.19;71012.41;5109993;28;20192;-79
2021/11/01 11:55:43;;;;;;;9.37;3.43;;;;;;;-145.69;98.04;71006.44;5110378;28;20205;-79
2021/11/01 11:58:12;;;;;;;4.40;1.70;;;;;;;-145.69;96.55;71008.41;5109969;28;20209;-80
2021/11/01 12:00:39;;;;;;;1.73;1.40;;;;;;;-145.69;100.00;71008.41;5109957;28;20206;-79
2021/11/01 12:03:13;;;;;;;1.93;1.13;;;;;;;-145.69;99.10;70980.56;5109472;27;20292;-79
2021/11/01 12:05:43;;;;;;;2.20;1.13;;;;;;;-145.69;96.72;70976.59;5109621;27;20194;-80
2021/11/01 12:08:15;;;;;;;1.30;1.00;;;;;;;-145.69;96.20;70968.63;5109762;28;20236;-80
2021/11/01 12:19:16;;;;;;;3.10;1.13;;;;;;;-145.69;94.79;70988.53;5090340;28;20205;-80
2021/11/01 12:28:28;;;;;;;6.03;1.00;;;;;;;-145.69;98.24;71000.47;5090230;28;20197;-80
2021/11/01 12:30:59;;;;;;;4.23;1.50;;;;;;;-145.69;97.82;70980.56;5089962;28;20198;-80
2021/11/01 12:33:28;;;;;;;2.43;1.47;;;;;;;-145.69;98.24;70968.63;5089415;28;20316;-80
2021/11/01 12:36:01;;;;;;;4.83;1.53;;;;;;;-145.69;99.46;70972.59;5089859;28;20232;-80
2021/11/01 12:38:37;;;;;;;2.53;1.20;;;;;;;-145.69;97.73;70960.66;5089871;28;20205;-80
2021/11/01 12:41:14;;;;;;;3.23;1.30;;;;;;;-145.69;95.95;70942.75;5088172;27;20202;-80
2021/11/01 12:49:56;;;;;;;0.90;0.80;;;;;;;-145.69;100.00;70956.69;5089557;28;20206;-79
2021/11/01 13:01:52;;;;;;;1.83;0.70;;;;;;;-145.69;100.00;70948.72;5089408;28;20233;-80
2021/11/01 13:04:34;;;;;;;1.07;0.73;;;;;;;-145.69;100.00;70936.78;5089726;28;20590;-80
2021/11/01 13:07:04;;;;;;;3.23;0.90;;;;;;;-145.69;99.94;70942.75;5089496;28;20198;-79
2021/11/01 13:09:38;;;;;;;2.03;1.20;;;;;;;-145.69;100.00;70946.75;5089363;28;20225;-78
2021/11/01 13:12:23;;;;;;;2.03;0.73;;;;;;;-145.69;100.00;70960.66;5089026;28;20265;-79
2021/11/01 13:15:04;;;;;;;2.13;1.07;;;;;;;-145.69;100.00;70964.66;5089002;28;20275;-79
2021/11/01 13:18:07;;;;;;;5.43;0.97;;;;;;;-145.69;100.00;70980.56;5088997;28;20244;-79
2021/11/01 13:27:30;;;;;;;3.80;0.80;;;;;;;-145.69;100.00;70964.66;5075587;28;20221;-80
2021/11/01 13:35:41;;;;;;;22.90;7.43;;;;;;;-145.69;100.00;70928.84;5075220;28;20205;-77
2021/11/01 13:41:29;;;;;;;38.87;9.47;;;;;;;-145.69;100.00;70924.84;5075187;28;20240;-80
2021/11/01 13:44:07;;;;;;;15.67;5.07;;;;;;;-145.69;100.00;70908.94;5071551;28;20206;-79
2021/11/01 13:46:34;;;;;;;4.30;2.03;;;;;;;-145.69;100.00;70908.94;5074207;28;20202;-79
2021/11/01 13:49:04;;;;;;;6.97;2.97;;;;;;;-145.69;100.00;70891.03;5074873;28;20214;-80
2021/11/01 13:51:32;;;;;;;4.37;2.27;;;;;;;-145.69;99.85;70885.06;5075387;28;20202;-79
2021/11/01 13:54:05;;;;;;;5.40;2.67;;;;;;;-145.69;100.00;70885.06;5075007;28;20203;-79
2021/11/01 13:56:37;;;;;;;5.70;2.30;;;;;;;-145.69;97.69;70871.13;5074839;28;20256;-80
2021/11/01 13:59:20;;;;;;;4.77;1.70;;;;;;;-145.69;96.88;70859.19;5074809;28;20604;-79
2021/11/01 14:12:04;;;;;;;4.33;1.03;;;;;;;-145.69;99.15;70853.22;5074472;28;20313;-80
2021/11/01 14:14:53;;;;;;;1.70;1.20;;;;;;;-145.69;97.46;70845.28;5074598;28;20237;-79
2021/11/01 14:27:06;;;;;;;2.93;1.60;;;;;;;-145.69;99.85;70855.22;5074647;28;20553;-80
2021/11/01 14:29:57;;;;;;;3.33;1.30;;;;;;;-145.69;98.52;70857.22;5074846;28;20202;-78
2021/11/01 15:09:13;;;;;;;2.10;1.33;;;;;;;-145.69;86.58;70696.06;5031951;28;20282;-84
2021/11/01 15:12:08;;;;;;;2.73;1.13;;;;;;;-145.69;87.97;70713.97;5069196;28;20720;-86
2021/11/01 15:20:50;;;;;;;3.53;0.80;;;;;;;-145.69;90.18;70773.66;5053433;28;20249;-83
2021/11/01 15:26:40;;;;;;;4.40;1.33;;;;;;;-145.69;91.88;70801.50;5027619;28;20206;-83
2021/11/01 15:36:08;;;;;;;8.20;1.20;;;;;;;-145.69;97.61;70873.13;5053514;28;20717;-79
2021/11/01 15:38:50;;;;;;;6.93;1.20;;;;;;;-145.69;98.65;70883.06;5053458;28;20757;-82
2021/11/01 15:41:51;;;;;;;6.10;1.23;;;;;;;-145.69;97.32;70859.19;5053629;28;20293;-80
2021/11/01 16:24:00;;;;;;;1.90;0.90;;;;;;;-145.69;100.00;71197.44;5052882;28;20237;-76
2021/11/01 16:26:28;;;;;;;2.97;1.00;;;;;;;-145.69;100.00;71211.38;5053139;28;20204;-77
2021/11/01 16:29:06;;;;;;;2.23;1.20;;;;;;;-145.69;100.00;71219.34;5053374;28;20195;-79
2021/11/01 16:39:06;;;;;;;1.83;1.20;;;;;;;-145.69;100.00;71193.47;5053348;28;20234;-76
2021/11/01 16:48:28;;;;;;;3.17;1.23;;;;;;;-145.69;100.00;71243.22;5051675;28;20301;-77
2021/11/01 16:50:56;;;;;;;5.37;1.20;;;;;;;-145.69;100.00;71259.13;5052880;28;20222;-76
2021/11/01 16:53:24;;;;;;;3.33;0.93;;;;;;;-145.69;100.00;71283.00;5052660;28;20238;-77
2021/11/01 16:55:51;;;;;;;4.30;1.40;;;;;;;-145.69;100.00;71277.03;5052666;28;20211;-79
2021/11/01 16:58:23;;;;;;;6.80;1.40;;;;;;;-145.69;100.00;71281.00;5054300;28;20206;-77
2021/11/01 17:00:56;;;;;;;4.60;1.67;;;;;;;-145.69;100.00;71288.97;5056251;28;20207;-78
2021/11/01 17:24:18;;;;;;;7.27;2.27;;;;;;;-145.69;100.00;71211.38;5076133;28;20244;-79
2021/11/01 17:26:57;;;;;;;11.13;4.93;;;;;;;-145.69;100.00;71207.38;5075957;28;20661;-78
2021/11/01 17:29:43;;;;;;;3.20;1.90;;;;;;;-145.69;100.00;71197.44;5076011;28;20662;-77
2021/11/01 17:38:49;;;;;;;4.50;2.50;;;;;;;-145.69;100.00;71185.50;5075351;28;20197;-78
2021/11/01 18:52:49;;;;;;;4.57;2.60;;;;;;;-145.69;100.00;71239.22;5074017;28;20225;-79
2021/11/01 18:55:16;;;;;;;3.23;1.47;;;;;;;-145.69;100.00;71249.19;5074092;28;20203;-80
2021/11/01 18:57:46;;;;;;;1.73;1.10;;;;;;;-145.69;100.00;71247.19;5073336;28;20210;-79
2021/11/01 19:03:43;;;;;;;2.13;1.00;;;;;;;-145.69;100.00;71233.25;5071206;28;20561;-81
2021/11/01 19:06:27;;;;;;;7.70;1.60;;;;;;;-145.69;100.00;71231.28;5070871;28;20191;-80
2021/11/01 19:09:13;;;;;;;12.50;4.67;;;;;;;-145.69;100.00;71237.25;5071941;28;20202;-79
2021/11/01 20:04:10;;;;;;;0.90;0.80;;;;;;;-145.69;100.00;71499.91;5071927;28;20197;-79
2021/11/01 20:06:58;;;;;;;2.27;0.90;;;;;;;-145.69;100.00;71499.91;5073174;28;20206;-79
2021/11/01 20:15:12;;;;;;;1.47;1.07;;;;;;;-145.69;100.00;71493.94;5069627;28;20245;-80
2021/11/01 21:31:30;;;;;;;4.53;2.40;;;;;;;-145.69;100.00;71557.59;5055844;28;20268;-79
2021/11/01 21:33:58;;;;;;;8.90;2.37;;;;;;;-145.69;100.00;71563.56;5056025;28;20227;-79
2021/11/01 21:36:26;;;;;;;10.40;2.20;;;;;;;-145.69;100.00;71569.53;5056161;28;20200;-79
2021/11/01 21:38:54;;;;;;;3.83;2.70;;;;;;;-145.69;100.00;71555.63;5056135;28;20251;-79